createdAt,value
2019-05-15T00:02:58.912Z,5.00
2019-05-15T00:06:03.385Z,5.00
2019-05-15T00:09:08.296Z,4.90
2019-05-15T00:12:12.605Z,4.80
2019-05-15T00:15:18.215Z,4.90
2019-05-15T00:18:22.783Z,4.70
2019-05-15T00:21:28.831Z,4.70
2019-05-15T00:24:33.137Z,4.60
2019-05-15T00:27:38.581Z,4.40
2019-05-15T00:30:43.251Z,4.40
2019-05-15T00:33:48.761Z,4.50
2019-05-15T00:36:53.074Z,4.40
2019-05-15T00:40:00.406Z,4.30
2019-05-15T00:43:04.795Z,4.30
2019-05-15T00:46:09.395Z,4.20
2019-05-15T00:49:13.758Z,4.20
2019-05-15T00:52:18.170Z,4.30
2019-05-15T00:55:22.520Z,4.20
2019-05-15T00:58:28.384Z,4.30
2019-05-15T01:01:32.831Z,4.30
2019-05-15T01:04:38.865Z,4.30
2019-05-15T01:07:43.223Z,4.30
2019-05-15T01:10:48.826Z,4.50
2019-05-15T01:13:53.332Z,4.40
2019-05-15T01:16:58.264Z,4.50
2019-05-15T01:20:02.780Z,4.60
2019-05-15T01:23:08.860Z,4.50
2019-05-15T01:26:13.110Z,4.70
2019-05-15T01:29:36.500Z,4.70
2019-05-15T01:32:35.542Z,4.70
2019-05-15T01:35:43.296Z,4.90
2019-05-15T01:38:48.094Z,4.80
2019-05-15T01:41:52.432Z,5.00
2019-05-15T01:44:59.132Z,5.00
2019-05-15T01:48:03.513Z,5.00
2019-05-15T01:51:09.265Z,5.10
2019-05-15T01:54:13.804Z,5.20
2019-05-15T01:57:18.255Z,5.00
2019-05-15T02:00:22.939Z,5.20
2019-05-15T02:03:28.978Z,5.20
2019-05-15T02:06:34.917Z,5.20
2019-05-15T02:09:39.201Z,5.30
2019-05-15T02:12:43.505Z,5.30
2019-05-15T02:15:48.287Z,5.30
2019-05-15T02:18:52.663Z,5.40
2019-05-15T02:21:57.992Z,5.40
2019-05-15T02:25:02.525Z,5.50
2019-05-15T02:28:09.103Z,5.50
2019-05-15T02:31:12.901Z,5.50
2019-05-15T02:34:19.491Z,5.60
2019-05-15T02:37:23.334Z,5.60
2019-05-15T02:40:29.509Z,5.50
2019-05-15T02:43:33.975Z,5.50
2019-05-15T02:46:39.101Z,5.50
2019-05-15T02:49:43.760Z,5.60
2019-05-15T02:52:49.700Z,5.60
2019-05-15T02:55:54.360Z,5.50
2019-05-15T02:58:59.901Z,5.50
2019-05-15T03:02:04.868Z,5.50
2019-05-15T03:05:11.301Z,5.50
2019-05-15T03:08:19.296Z,5.50
2019-05-15T03:11:21.620Z,5.60
2019-05-15T03:14:28.893Z,5.50
2019-05-15T03:17:31.904Z,5.50
2019-05-15T03:20:38.878Z,5.50
2019-05-15T03:23:42.261Z,5.50
2019-05-15T03:26:49.424Z,5.50
2019-05-15T03:29:52.846Z,5.40
2019-05-15T03:33:07.718Z,5.40
2019-05-15T03:36:03.881Z,5.40
2019-05-15T03:39:09.676Z,5.30
2019-05-15T03:42:14.228Z,5.50
2019-05-15T03:45:19.395Z,5.40
2019-05-15T03:48:23.763Z,5.40
2019-05-15T03:51:28.983Z,5.40
2019-05-15T03:54:33.592Z,5.40
2019-05-15T03:57:40.111Z,5.40
2019-05-15T04:00:45.721Z,5.40
2019-05-15T04:03:50.133Z,5.40
2019-05-15T04:06:54.422Z,5.50
2019-05-15T04:09:58.930Z,5.50
2019-05-15T04:13:03.439Z,5.60
2019-05-15T04:16:10.303Z,5.60
2019-05-15T04:19:13.776Z,5.60
2019-05-15T04:22:19.819Z,5.60
2019-05-15T04:25:25.223Z,5.60
2019-05-15T04:28:32.151Z,5.50
2019-05-15T04:31:53.511Z,5.60
2019-05-15T04:34:42.878Z,5.70
2019-05-15T04:37:49.391Z,5.50
2019-05-15T04:40:53.855Z,5.70
2019-05-15T04:44:00.944Z,5.80
2019-05-15T04:47:05.214Z,5.70
2019-05-15T04:50:10.350Z,5.70
2019-05-15T04:53:14.873Z,5.70
2019-05-15T04:56:19.548Z,5.70
2019-05-15T04:59:23.930Z,5.80
2019-05-15T05:02:32.142Z,5.90
2019-05-15T05:05:38.624Z,5.80
2019-05-15T05:08:41.994Z,5.90
2019-05-15T05:11:48.773Z,5.80
2019-05-15T05:14:52.365Z,5.90
2019-05-15T05:17:58.578Z,5.90
2019-05-15T05:21:02.719Z,6.00
2019-05-15T05:24:07.988Z,6.00
2019-05-15T05:27:12.591Z,6.10
2019-05-15T05:30:18.958Z,6.10
2019-05-15T05:33:22.956Z,6.20
2019-05-15T05:36:27.993Z,6.30
2019-05-15T05:39:32.434Z,6.50
2019-05-15T05:42:38.906Z,6.60
2019-05-15T05:45:42.986Z,6.70
2019-05-15T05:48:48.949Z,6.80
2019-05-15T05:51:53.920Z,6.80
2019-05-15T05:54:58.198Z,6.90
2019-05-15T05:58:03.032Z,6.90
2019-05-15T06:01:09.357Z,6.80
2019-05-15T06:04:13.559Z,6.90
2019-05-15T06:07:18.577Z,6.80
2019-05-15T06:10:23.140Z,6.80
2019-05-15T06:13:29.153Z,6.80
2019-05-15T06:16:33.625Z,6.70
2019-05-15T06:19:38.727Z,6.70
2019-05-15T06:22:43.114Z,6.70
2019-05-15T06:25:48.550Z,6.60
2019-05-15T06:28:53.336Z,6.60
2019-05-15T06:31:58.774Z,6.60
2019-05-15T06:35:03.597Z,6.50
2019-05-15T06:38:08.555Z,6.60
2019-05-15T06:41:12.998Z,6.50
2019-05-15T06:44:18.770Z,6.40
2019-05-15T06:47:24.435Z,6.50
2019-05-15T06:50:38.276Z,6.60
2019-05-15T06:53:43.099Z,6.60
2019-05-15T06:56:49.203Z,6.80
2019-05-15T06:59:53.473Z,6.90
2019-05-15T07:02:58.442Z,6.90
2019-05-15T07:06:03.154Z,7.00
2019-05-15T07:09:09.377Z,7.00
2019-05-15T07:12:13.989Z,7.20
2019-05-15T07:15:18.742Z,7.30
2019-05-15T07:18:23.135Z,7.50
2019-05-15T07:21:29.221Z,7.50
2019-05-15T07:24:33.913Z,7.40
2019-05-15T07:27:39.108Z,7.50
2019-05-15T07:30:45.919Z,7.40
2019-05-15T07:33:50.347Z,7.20
2019-05-15T07:36:55.044Z,7.30
2019-05-15T07:39:59.771Z,7.40
2019-05-15T07:43:04.258Z,7.40
2019-05-15T07:46:08.703Z,7.50
2019-05-15T07:49:13.473Z,7.70
2019-05-15T07:52:19.413Z,7.90
2019-05-15T07:55:23.945Z,7.90
2019-05-15T07:58:28.675Z,8.10
2019-05-15T08:01:32.955Z,8.10
2019-05-15T08:04:38.097Z,8.10
2019-05-15T08:07:42.590Z,8.00
2019-05-15T08:10:48.899Z,7.90
2019-05-15T08:13:53.206Z,8.00
2019-05-15T08:16:59.248Z,7.90
2019-05-15T08:20:03.720Z,7.90
2019-05-15T08:23:08.528Z,7.90
2019-05-15T08:26:13.213Z,8.00
2019-05-15T08:29:21.461Z,8.10
2019-05-15T08:32:23.845Z,8.10
2019-05-15T08:35:29.166Z,8.10
2019-05-15T08:38:34.133Z,8.20
2019-05-15T08:41:39.245Z,8.30
2019-05-15T08:44:44.278Z,8.60
2019-05-15T08:47:49.333Z,8.60
2019-05-15T08:50:53.832Z,8.70
2019-05-15T08:53:58.538Z,8.60
2019-05-15T08:57:02.855Z,8.80
2019-05-15T09:00:09.751Z,8.80
2019-05-15T09:03:14.686Z,8.70
2019-05-15T09:06:22.905Z,9.00
2019-05-15T09:09:25.496Z,9.10
2019-05-15T09:12:29.836Z,9.10
2019-05-15T09:15:39.368Z,9.10
2019-05-15T09:18:41.965Z,9.00
2019-05-15T09:21:48.902Z,9.10
2019-05-15T09:24:52.790Z,9.10
2019-05-15T09:27:57.974Z,9.00
2019-05-15T09:31:02.969Z,9.00
2019-05-15T09:34:09.084Z,8.90
2019-05-15T09:37:13.752Z,8.90
2019-05-15T09:40:18.671Z,8.70
2019-05-15T09:43:25.365Z,8.60
2019-05-15T09:46:29.774Z,8.50
2019-05-15T09:49:34.918Z,8.50
2019-05-15T09:52:40.821Z,8.40
2019-05-15T09:55:45.106Z,8.20
2019-05-15T09:58:49.777Z,8.30
2019-05-15T10:01:54.088Z,8.20
2019-05-15T10:05:06.327Z,8.20
2019-05-15T10:08:04.837Z,8.20
2019-05-15T10:11:09.440Z,8.30
2019-05-15T10:14:13.772Z,8.40
2019-05-15T10:17:18.505Z,8.40
2019-05-15T10:20:22.874Z,8.30
2019-05-15T10:23:29.247Z,8.30
2019-05-15T10:26:33.216Z,8.20
2019-05-15T10:29:38.796Z,8.20
2019-05-15T10:32:43.226Z,8.20
2019-05-15T10:35:48.168Z,8.20
2019-05-15T10:38:54.007Z,8.10
2019-05-15T10:41:58.915Z,8.20
2019-05-15T10:45:03.281Z,8.10
2019-05-15T10:48:09.361Z,8.10
2019-05-15T10:51:13.651Z,7.90
2019-05-15T10:54:19.208Z,8.00
2019-05-15T10:57:23.656Z,7.90
2019-05-15T11:00:28.747Z,7.80
2019-05-15T11:03:35.069Z,7.90
2019-05-15T11:06:39.985Z,7.90
2019-05-15T11:09:44.309Z,7.90
2019-05-15T11:12:48.747Z,8.20
2019-05-15T11:15:53.091Z,8.10
2019-05-15T11:18:58.534Z,8.10
2019-05-15T11:22:03.418Z,8.30
2019-05-15T11:25:09.807Z,8.30
2019-05-15T11:28:14.767Z,8.40
2019-05-15T11:31:20.406Z,8.40
2019-05-15T11:34:24.714Z,8.40
2019-05-15T11:37:29.146Z,8.40
2019-05-15T11:40:34.657Z,8.30
2019-05-15T11:43:39.617Z,8.30
2019-05-15T11:46:44.288Z,8.20
2019-05-15T11:49:48.535Z,8.10
2019-05-15T11:52:52.849Z,8.10
2019-05-15T11:55:59.775Z,8.10
2019-05-15T11:59:03.734Z,8.00
2019-05-15T12:02:08.531Z,8.00
2019-05-15T12:05:13.940Z,7.90
2019-05-15T12:08:18.741Z,8.00
2019-05-15T12:11:36.592Z,8.00
2019-05-15T12:14:35.001Z,8.00
2019-05-15T12:17:39.373Z,8.00
2019-05-15T12:20:43.690Z,8.00
2019-05-15T12:23:50.246Z,8.00
2019-05-15T12:26:54.951Z,8.00
2019-05-15T12:29:59.981Z,8.00
2019-05-15T12:33:04.581Z,8.00
2019-05-15T12:36:10.799Z,8.00
2019-05-15T12:39:20.708Z,8.00
2019-05-15T13:00:59.436Z,7.90
2019-05-15T13:04:04.142Z,7.90
2019-05-15T13:07:13.900Z,7.90
2019-05-15T13:10:15.139Z,7.80
2019-05-15T13:13:19.988Z,7.90
2019-05-15T13:16:25.112Z,8.10
2019-05-15T13:19:29.668Z,8.10
2019-05-15T13:22:36.325Z,8.00
2019-05-15T13:25:40.725Z,8.10
2019-05-15T13:28:45.036Z,7.90
2019-05-15T13:31:51.551Z,8.00
2019-05-15T13:34:59.273Z,8.00
2019-05-15T13:38:02.219Z,8.10
2019-05-15T13:41:09.202Z,8.10
2019-05-15T13:44:12.934Z,8.00
2019-05-15T13:47:17.802Z,8.10
2019-05-15T13:50:22.185Z,8.00
2019-05-15T13:53:27.952Z,8.00
2019-05-15T13:56:32.365Z,8.00
2019-05-15T13:59:39.117Z,8.00
2019-05-15T14:02:42.760Z,8.00
2019-05-15T14:05:49.842Z,7.90
2019-05-15T14:08:53.925Z,8.00
2019-05-15T14:11:59.606Z,8.00
2019-05-15T14:15:04.400Z,7.90
2019-05-15T14:18:08.927Z,7.90
2019-05-15T14:21:13.242Z,7.80
2019-05-15T14:24:18.332Z,8.00
2019-05-15T14:27:22.858Z,7.90
2019-05-15T14:30:29.234Z,7.90
2019-05-15T14:33:33.630Z,7.90
2019-05-15T14:36:38.353Z,8.00
2019-05-15T14:39:44.828Z,8.00
2019-05-15T14:42:49.181Z,7.90
2019-05-15T14:45:53.494Z,8.00
2019-05-15T14:48:58.258Z,8.00
2019-05-15T14:52:08.429Z,8.00
2019-05-15T14:55:09.713Z,8.10
2019-05-15T14:58:14.454Z,8.10
2019-05-15T15:01:18.796Z,8.00
2019-05-15T15:04:23.172Z,8.10
2019-05-15T15:07:28.268Z,8.10
2019-05-15T15:10:32.928Z,8.10
2019-05-15T15:13:38.368Z,8.10
2019-05-15T15:16:43.298Z,8.20
2019-05-15T15:19:51.522Z,8.10
2019-05-15T15:22:54.802Z,8.30
2019-05-15T15:25:59.719Z,8.20
2019-05-15T15:29:04.038Z,8.20
2019-05-15T15:32:08.422Z,8.20
2019-05-15T15:35:14.483Z,8.10
2019-05-15T15:38:33.085Z,8.20
2019-05-15T15:41:24.887Z,8.20
2019-05-15T15:44:29.631Z,8.10
2019-05-15T15:47:35.524Z,8.20
2019-05-15T15:50:39.926Z,8.20
2019-05-15T15:53:44.429Z,8.30
2019-05-15T15:56:50.846Z,8.20
2019-05-15T15:59:55.223Z,8.20
2019-05-15T16:02:59.634Z,8.30
2019-05-15T16:06:04.367Z,8.30
2019-05-15T16:09:09.027Z,8.30
2019-05-15T16:12:13.400Z,8.40
2019-05-15T16:15:18.199Z,8.30
2019-05-15T16:18:22.717Z,8.40
2019-05-15T16:21:28.723Z,8.50
2019-05-15T16:24:33.297Z,8.30
2019-05-15T16:27:38.207Z,8.40
2019-05-15T16:30:51.157Z,8.50
2019-05-15T16:33:48.817Z,8.50
2019-05-15T16:36:53.397Z,8.40
2019-05-15T16:39:59.870Z,8.40
2019-05-15T16:43:03.785Z,8.40
2019-05-15T16:46:09.132Z,8.50
2019-05-15T16:49:13.735Z,8.50
2019-05-15T16:52:18.257Z,8.50
2019-05-15T16:55:23.067Z,8.50
2019-05-15T16:58:29.613Z,8.40
2019-05-15T17:01:34.074Z,8.30
2019-05-15T17:04:38.427Z,8.40
2019-05-15T17:07:42.781Z,8.40
2019-05-15T17:10:48.334Z,8.50
2019-05-15T17:13:52.911Z,8.40
2019-05-15T17:16:58.664Z,8.40
2019-05-15T17:20:04.782Z,8.40
2019-05-15T17:23:09.167Z,8.50
2019-05-15T17:26:13.579Z,8.40
2019-05-15T17:29:20.280Z,8.40
2019-05-15T17:32:24.609Z,8.30
2019-05-15T17:35:28.981Z,8.40
2019-05-15T17:38:33.276Z,8.40
2019-05-15T17:41:39.045Z,8.40
2019-05-15T17:44:43.589Z,8.50
2019-05-15T17:47:48.775Z,8.50
2019-05-15T17:50:53.347Z,8.50
2019-05-15T17:53:58.252Z,8.50
2019-05-15T17:57:02.928Z,8.50
2019-05-15T18:00:11.620Z,8.50
2019-05-15T18:03:14.146Z,8.50
2019-05-15T18:06:18.522Z,8.50
2019-05-15T18:09:23.274Z,8.40
2019-05-15T18:12:29.250Z,8.40
2019-05-15T18:15:33.810Z,8.50
2019-05-15T18:18:38.480Z,8.50
2019-05-15T18:21:42.917Z,8.50
2019-05-15T18:24:48.794Z,8.50
2019-05-15T18:27:58.762Z,8.60
2019-05-15T18:31:02.048Z,8.60
2019-05-15T18:34:08.326Z,8.50
2019-05-15T18:37:12.499Z,8.50
2019-05-15T18:40:18.988Z,8.50
2019-05-15T18:43:23.434Z,8.60
2019-05-15T18:46:28.928Z,8.50
2019-05-15T18:49:34.181Z,8.60
2019-05-15T18:52:39.635Z,8.50
2019-05-15T18:55:44.813Z,8.40
2019-05-15T18:58:49.307Z,8.50
2019-05-15T19:01:54.877Z,8.30
2019-05-15T19:05:00.104Z,8.40
2019-05-15T19:08:04.569Z,8.40
2019-05-15T19:11:09.287Z,8.30
2019-05-15T19:14:14.002Z,8.40
2019-05-15T19:17:18.888Z,8.30
2019-05-15T19:20:25.103Z,8.40
2019-05-15T19:23:31.151Z,8.30
2019-05-15T19:26:36.592Z,8.30
2019-05-15T19:29:41.097Z,8.10
2019-05-15T19:32:49.113Z,8.30
2019-05-15T19:35:53.729Z,8.30
2019-05-15T19:38:58.106Z,8.30
2019-05-15T19:42:04.182Z,8.20
2019-05-15T19:45:10.951Z,8.30
2019-05-15T19:48:17.885Z,8.20
2019-05-15T19:51:24.959Z,8.20
2019-05-15T19:54:29.833Z,8.10
2019-05-15T19:57:34.769Z,8.30
2019-05-15T20:00:39.365Z,8.20
2019-05-15T20:03:50.640Z,8.20
2019-05-15T20:06:52.518Z,8.20
2019-05-15T20:09:58.407Z,8.20
2019-05-15T20:13:03.362Z,8.10
2019-05-15T20:16:07.776Z,8.10
2019-05-15T20:19:12.181Z,8.10
2019-05-15T20:22:18.886Z,8.10
2019-05-15T20:25:22.838Z,8.20
2019-05-15T20:28:28.582Z,8.10
2019-05-15T20:31:33.429Z,8.30
2019-05-15T20:34:38.029Z,8.20
2019-05-15T20:37:42.556Z,8.20
2019-05-15T20:40:48.586Z,8.20
2019-05-15T20:43:53.318Z,8.10
2019-05-15T20:46:58.979Z,8.10
2019-05-15T20:50:03.704Z,8.10
2019-05-15T20:53:08.025Z,8.10
2019-05-15T20:56:12.417Z,8.20
2019-05-15T20:59:18.188Z,8.10
2019-05-15T21:02:23.122Z,8.20
2019-05-15T21:05:27.967Z,8.20
2019-05-15T21:08:32.657Z,8.30
2019-05-15T21:11:39.462Z,8.10
2019-05-15T21:14:43.107Z,8.10
2019-05-15T21:17:57.923Z,8.10
2019-05-15T21:20:53.561Z,8.10
2019-05-15T21:24:00.718Z,8.10
2019-05-15T21:27:04.097Z,8.20
2019-05-15T21:30:09.833Z,8.20
2019-05-15T21:33:14.234Z,8.20
2019-05-15T21:36:19.463Z,8.10
2019-05-15T21:39:23.988Z,8.10
2019-05-15T21:42:29.842Z,8.20
2019-05-15T21:45:37.581Z,8.20
2019-05-15T21:48:42.123Z,8.20
2019-05-15T21:51:47.920Z,8.20
2019-05-15T21:54:52.487Z,8.10
2019-05-15T21:57:57.781Z,8.10
2019-05-15T22:01:02.959Z,8.20
2019-05-15T22:04:07.249Z,8.20
2019-05-15T22:07:11.813Z,8.30
2019-05-15T22:10:18.654Z,8.10
2019-05-15T22:13:22.552Z,8.20
2019-05-15T22:16:28.877Z,8.20
2019-05-15T22:19:32.981Z,8.20
2019-05-15T22:22:37.409Z,8.10
2019-05-15T22:25:41.946Z,8.10
2019-05-15T22:28:46.255Z,8.10
2019-05-15T22:31:50.562Z,8.10
2019-05-15T22:35:06.235Z,8.00
2019-05-15T22:38:03.963Z,8.10
2019-05-15T22:41:10.512Z,8.20
2019-05-15T22:44:14.993Z,8.20
2019-05-15T22:47:19.896Z,8.10
2019-05-15T22:50:24.850Z,8.20
2019-05-15T22:53:29.175Z,8.10
2019-05-15T22:56:33.601Z,8.10
2019-05-15T22:59:58.133Z,8.20
2019-05-15T23:03:02.595Z,8.10
2019-05-15T23:06:08.342Z,8.20
2019-05-15T23:09:12.943Z,8.20
2019-05-15T23:12:18.258Z,8.20
2019-05-15T23:15:24.167Z,8.30
2019-05-15T23:18:28.669Z,8.20
2019-05-15T23:21:33.022Z,8.30
2019-05-15T23:24:38.714Z,8.20
2019-05-15T23:27:43.172Z,8.20
2019-05-15T23:30:48.526Z,8.20
2019-05-15T23:33:53.060Z,8.20
2019-05-15T23:36:57.674Z,8.20
2019-05-15T23:40:02.077Z,8.10
2019-05-15T23:43:08.883Z,8.20
2019-05-15T23:46:12.671Z,8.10
2019-05-15T23:49:17.024Z,8.10
2019-05-15T23:52:21.327Z,8.20
2019-05-15T23:55:28.264Z,8.30
2019-05-15T23:58:31.701Z,8.20
